Aviation Digital Data Service (ADDS)

Output produced by METARs form (1351 UTC 26 February 2021)
found at http://www.aviationweather.gov/metar/data/
 
METAR text: FMMI 261300Z 15005KT 090V200 9999 SCT020CB SCT023 27/18 Q1013 NOSIG
Conditions at: FMMI (ANTANANARIVO/IVA, KM) observed 1300 UTC 26 February 2021
Temperature: 27.0°C (81°F)
Dewpoint: 18.0°C (64°F) [RH = 58%]
Pressure (altimeter): 29.91 inches Hg (1013.0 mb)
Winds: from the SSE (150 degrees) at 6 MPH (5 knots; 2.6 m/s)
Visibility: 6 or more miles (10+ km)
Ceiling: at least 12,000 feet AGL
Clouds: scattered clouds at 2000 feet AGL
scattered clouds at 2300 feet AGL
Weather: no significant weather observed at this time

METAR text: FMMI 261230Z 08007KT 9999 SCT020CB SCT023 25/18 Q1014 NOSIG
Conditions at: FMMI (ANTANANARIVO/IVA, KM) observed 1230 UTC 26 February 2021
Temperature: 25.0°C (77°F)
Dewpoint: 18.0°C (64°F) [RH = 65%]
Pressure (altimeter): 29.94 inches Hg (1014.0 mb)
Winds: from the E (80 degrees) at 8 MPH (7 knots; 3.6 m/s)
Visibility: 6 or more miles (10+ km)
Ceiling: at least 12,000 feet AGL
Clouds: scattered clouds at 2000 feet AGL
scattered clouds at 2300 feet AGL
Weather: no significant weather observed at this time

METAR text: FMMI 261200Z 11008KT 070V170 9999 VCSH BKN020CB 26/18 Q1014 NOSIG
Conditions at: FMMI (ANTANANARIVO/IVA, KM) observed 1200 UTC 26 February 2021
Temperature: 26.0°C (79°F)
Dewpoint: 18.0°C (64°F) [RH = 61%]
Pressure (altimeter): 29.94 inches Hg (1014.0 mb)
Winds: from the ESE (110 degrees) at 9 MPH (8 knots; 4.1 m/s)
Visibility: 6 or more miles (10+ km)
Ceiling: 2000 feet AGL
Clouds: broken clouds at 2000 feet AGL
Weather: VCSH  (showers in vicinity)

METAR text: FMMI 261130Z 11007KT 090V160 9999 VCSH BKN020CB 26/18 Q1014 NOSIG
Conditions at: FMMI (ANTANANARIVO/IVA, KM) observed 1130 UTC 26 February 2021
Temperature: 26.0°C (79°F)
Dewpoint: 18.0°C (64°F) [RH = 61%]
Pressure (altimeter): 29.94 inches Hg (1014.0 mb)
Winds: from the ESE (110 degrees) at 8 MPH (7 knots; 3.6 m/s)
Visibility: 6 or more miles (10+ km)
Ceiling: 2000 feet AGL
Clouds: broken clouds at 2000 feet AGL
Weather: VCSH  (showers in vicinity)

METAR text: FMMI 261100Z VRB05KT 9999 VCSH BKN020CB 27/17 Q1014 NOSIG
Conditions at: FMMI (ANTANANARIVO/IVA, KM) observed 1100 UTC 26 February 2021
Temperature: 27.0°C (81°F)
Dewpoint: 17.0°C (63°F) [RH = 54%]
Pressure (altimeter): 29.94 inches Hg (1014.0 mb)
Winds: variable direction winds at 6 MPH (5 knots; 2.6 m/s)
Visibility: 6 or more miles (10+ km)
Ceiling: 2000 feet AGL
Clouds: broken clouds at 2000 feet AGL
Weather: VCSH  (showers in vicinity)

METAR text: FMMI 261030Z VRB04KT 9999 VCSH BKN020TCU 25/19 Q1015 NOSIG
Conditions at: FMMI (ANTANANARIVO/IVA, KM) observed 1030 UTC 26 February 2021
Temperature: 25.0°C (77°F)
Dewpoint: 19.0°C (66°F) [RH = 69%]
Pressure (altimeter): 29.97 inches Hg (1015.0 mb)
Winds: variable direction winds at 5 MPH (4 knots; 2.1 m/s)
Visibility: 6 or more miles (10+ km)
Ceiling: 2000 feet AGL
Clouds: broken clouds at 2000 feet AGL
Weather: VCSH  (showers in vicinity)

METAR text: FMMI 261000Z VRB02KT 9999 VCSH BKN020TCU 26/18 Q1015 NOSIG
Conditions at: FMMI (ANTANANARIVO/IVA, KM) observed 1000 UTC 26 February 2021
Temperature: 26.0°C (79°F)
Dewpoint: 18.0°C (64°F) [RH = 61%]
Pressure (altimeter): 29.97 inches Hg (1015.0 mb)
Winds: variable direction winds at 2 MPH (2 knots; 1.0 m/s)
Visibility: 6 or more miles (10+ km)
Ceiling: 2000 feet AGL
Clouds: broken clouds at 2000 feet AGL
Weather: VCSH  (showers in vicinity)

METAR text: FMMI 260930Z VRB05KT 9999 BKN020TCU 27/17 Q1016 NOSIG
Conditions at: FMMI (ANTANANARIVO/IVA, KM) observed 0930 UTC 26 February 2021
Temperature: 27.0°C (81°F)
Dewpoint: 17.0°C (63°F) [RH = 54%]
Pressure (altimeter): 30.00 inches Hg (1016.0 mb)
Winds: variable direction winds at 6 MPH (5 knots; 2.6 m/s)
Visibility: 6 or more miles (10+ km)
Ceiling: 2000 feet AGL
Clouds: broken clouds at 2000 feet AGL
Weather: no significant weather observed at this time

METAR text: FMMI 260900Z VRB03KT 9999 BKN020TCU 26/17 Q1016 NOSIG
Conditions at: FMMI (ANTANANARIVO/IVA, KM) observed 0900 UTC 26 February 2021
Temperature: 26.0°C (79°F)
Dewpoint: 17.0°C (63°F) [RH = 58%]
Pressure (altimeter): 30.00 inches Hg (1016.0 mb)
Winds: variable direction winds at 3 MPH (3 knots; 1.5 m/s)
Visibility: 6 or more miles (10+ km)
Ceiling: 2000 feet AGL
Clouds: broken clouds at 2000 feet AGL
Weather: no significant weather observed at this time

METAR text: FMMI 260830Z VRB05KT 9999 BKN020 25/17 Q1017 NOSIG
Conditions at: FMMI (ANTANANARIVO/IVA, KM) observed 0830 UTC 26 February 2021
Temperature: 25.0°C (77°F)
Dewpoint: 17.0°C (63°F) [RH = 61%]
Pressure (altimeter): 30.03 inches Hg (1017.0 mb)
Winds: variable direction winds at 6 MPH (5 knots; 2.6 m/s)
Visibility: 6 or more miles (10+ km)
Ceiling: 2000 feet AGL
Clouds: broken clouds at 2000 feet AGL
Weather: no significant weather observed at this time

METAR text: FMMI 260800Z 09008KT 9999 BKN020 24/17 Q1017 NOSIG
Conditions at: FMMI (ANTANANARIVO/IVA, KM) observed 0800 UTC 26 February 2021
Temperature: 24.0°C (75°F)
Dewpoint: 17.0°C (63°F) [RH = 65%]
Pressure (altimeter): 30.03 inches Hg (1017.0 mb)
Winds: from the E (90 degrees) at 9 MPH (8 knots; 4.1 m/s)
Visibility: 6 or more miles (10+ km)
Ceiling: 2000 feet AGL
Clouds: broken clouds at 2000 feet AGL
Weather: no significant weather observed at this time

METAR text: FMMI 260730Z 09009KT 060V160 9999 BKN020 25/17 Q1017 NOSIG
Conditions at: FMMI (ANTANANARIVO/IVA, KM) observed 0730 UTC 26 February 2021
Temperature: 25.0°C (77°F)
Dewpoint: 17.0°C (63°F) [RH = 61%]
Pressure (altimeter): 30.03 inches Hg (1017.0 mb)
Winds: from the E (90 degrees) at 10 MPH (9 knots; 4.6 m/s)
Visibility: 6 or more miles (10+ km)
Ceiling: 2000 feet AGL
Clouds: broken clouds at 2000 feet AGL
Weather: no significant weather observed at this time

METAR text: FMMI 260700Z 11010KT 9999 BKN020 23/17 Q1017 NOSIG
Conditions at: FMMI (ANTANANARIVO/IVA, KM) observed 0700 UTC 26 February 2021
Temperature: 23.0°C (73°F)
Dewpoint: 17.0°C (63°F) [RH = 69%]
Pressure (altimeter): 30.03 inches Hg (1017.0 mb)
Winds: from the ESE (110 degrees) at 12 MPH (10 knots; 5.1 m/s)
Visibility: 6 or more miles (10+ km)
Ceiling: 2000 feet AGL
Clouds: broken clouds at 2000 feet AGL
Weather: no significant weather observed at this time

METAR text: FMMI 260630Z VRB05KT 9999 SCT017 BKN020 23/17 Q1017 NOSIG
Conditions at: FMMI (ANTANANARIVO/IVA, KM) observed 0630 UTC 26 February 2021
Temperature: 23.0°C (73°F)
Dewpoint: 17.0°C (63°F) [RH = 69%]
Pressure (altimeter): 30.03 inches Hg (1017.0 mb)
Winds: variable direction winds at 6 MPH (5 knots; 2.6 m/s)
Visibility: 6 or more miles (10+ km)
Ceiling: 2000 feet AGL
Clouds: scattered clouds at 1700 feet AGL
broken clouds at 2000 feet AGL
Weather: no significant weather observed at this time

METAR text: FMMI 260600Z VRB04KT 9999 FEW010 BKN020 23/18 Q1017 NOSIG
Conditions at: FMMI (ANTANANARIVO/IVA, KM) observed 0600 UTC 26 February 2021
Temperature: 23.0°C (73°F)
Dewpoint: 18.0°C (64°F) [RH = 73%]
Pressure (altimeter): 30.03 inches Hg (1017.0 mb)
Winds: variable direction winds at 5 MPH (4 knots; 2.1 m/s)
Visibility: 6 or more miles (10+ km)
Ceiling: 2000 feet AGL
Clouds: few clouds at 1000 feet AGL
broken clouds at 2000 feet AGL
Weather: no significant weather observed at this time

METAR text: FMMI 260530Z VRB03KT 9999 FEW010 BKN020 20/17 Q1018 NOSIG
Conditions at: FMMI (ANTANANARIVO/IVA, KM) observed 0530 UTC 26 February 2021
Temperature: 20.0°C (68°F)
Dewpoint: 17.0°C (63°F) [RH = 83%]
Pressure (altimeter): 30.06 inches Hg (1018.0 mb)
Winds: variable direction winds at 3 MPH (3 knots; 1.5 m/s)
Visibility: 6 or more miles (10+ km)
Ceiling: 2000 feet AGL
Clouds: few clouds at 1000 feet AGL
broken clouds at 2000 feet AGL
Weather: no significant weather observed at this time

METAR text: FMMI 260500Z 09006KT 9999 FEW010 BKN020 20/17 Q1017 NOSIG
Conditions at: FMMI (ANTANANARIVO/IVA, KM) observed 0500 UTC 26 February 2021
Temperature: 20.0°C (68°F)
Dewpoint: 17.0°C (63°F) [RH = 83%]
Pressure (altimeter): 30.03 inches Hg (1017.0 mb)
Winds: from the E (90 degrees) at 7 MPH (6 knots; 3.1 m/s)
Visibility: 6 or more miles (10+ km)
Ceiling: 2000 feet AGL
Clouds: few clouds at 1000 feet AGL
broken clouds at 2000 feet AGL
Weather: no significant weather observed at this time

METAR text: FMMI 260430Z 11007KT 9999 FEW008 SCT020 18/16 Q1017 NOSIG
Conditions at: FMMI (ANTANANARIVO/IVA, KM) observed 0430 UTC 26 February 2021
Temperature: 18.0°C (64°F)
Dewpoint: 16.0°C (61°F) [RH = 88%]
Pressure (altimeter): 30.03 inches Hg (1017.0 mb)
Winds: from the ESE (110 degrees) at 8 MPH (7 knots; 3.6 m/s)
Visibility: 6 or more miles (10+ km)
Ceiling: at least 12,000 feet AGL
Clouds: few clouds at 800 feet AGL
scattered clouds at 2000 feet AGL
Weather: no significant weather observed at this time

METAR text: FMMI 260400Z 12005KT 100V180 9999 FEW008 SCT020 18/16 Q1017 NOSIG
Conditions at: FMMI (ANTANANARIVO/IVA, KM) observed 0400 UTC 26 February 2021
Temperature: 18.0°C (64°F)
Dewpoint: 16.0°C (61°F) [RH = 88%]
Pressure (altimeter): 30.03 inches Hg (1017.0 mb)
Winds: from the ESE (120 degrees) at 6 MPH (5 knots; 2.6 m/s)
Visibility: 6 or more miles (10+ km)
Ceiling: at least 12,000 feet AGL
Clouds: few clouds at 800 feet AGL
scattered clouds at 2000 feet AGL
Weather: no significant weather observed at this time

METAR text: FMMI 260330Z 17005KT 9999 FEW020 17/16 Q1016 NOSIG
Conditions at: FMMI (ANTANANARIVO/IVA, KM) observed 0330 UTC 26 February 2021
Temperature: 17.0°C (63°F)
Dewpoint: 16.0°C (61°F) [RH = 94%]
Pressure (altimeter): 30.00 inches Hg (1016.0 mb)
Winds: from the S (170 degrees) at 6 MPH (5 knots; 2.6 m/s)
Visibility: 6 or more miles (10+ km)
Ceiling: at least 12,000 feet AGL
Clouds: few clouds at 2000 feet AGL
Weather: no significant weather observed at this time

METAR text: FMMI 260300Z 14004KT 090V170 9999 FEW020 17/16 Q1016 NOSIG
Conditions at: FMMI (ANTANANARIVO/IVA, KM) observed 0300 UTC 26 February 2021
Temperature: 17.0°C (63°F)
Dewpoint: 16.0°C (61°F) [RH = 94%]
Pressure (altimeter): 30.00 inches Hg (1016.0 mb)
Winds: from the SE (140 degrees) at 5 MPH (4 knots; 2.1 m/s)
Visibility: 6 or more miles (10+ km)
Ceiling: at least 12,000 feet AGL
Clouds: few clouds at 2000 feet AGL
Weather: no significant weather observed at this time

METAR text: FMMI 260230Z 09007KT 9999 FEW020 17/16 Q1016 NOSIG
Conditions at: FMMI (ANTANANARIVO/IVA, KM) observed 0230 UTC 26 February 2021
Temperature: 17.0°C (63°F)
Dewpoint: 16.0°C (61°F) [RH = 94%]
Pressure (altimeter): 30.00 inches Hg (1016.0 mb)
Winds: from the E (90 degrees) at 8 MPH (7 knots; 3.6 m/s)
Visibility: 6 or more miles (10+ km)
Ceiling: at least 12,000 feet AGL
Clouds: few clouds at 2000 feet AGL
Weather: no significant weather observed at this time

METAR text: FMMI 260200Z 08006KT 9999 FEW020 17/16 Q1016 NOSIG
Conditions at: FMMI (ANTANANARIVO/IVA, KM) observed 0200 UTC 26 February 2021
Temperature: 17.0°C (63°F)
Dewpoint: 16.0°C (61°F) [RH = 94%]
Pressure (altimeter): 30.00 inches Hg (1016.0 mb)
Winds: from the E (80 degrees) at 7 MPH (6 knots; 3.1 m/s)
Visibility: 6 or more miles (10+ km)
Ceiling: at least 12,000 feet AGL
Clouds: few clouds at 2000 feet AGL
Weather: no significant weather observed at this time

METAR text: FMMI 260130Z 08005KT 9999 FEW014 SCT020 17/16 Q1016 NOSIG
Conditions at: FMMI (ANTANANARIVO/IVA, KM) observed 0130 UTC 26 February 2021
Temperature: 17.0°C (63°F)
Dewpoint: 16.0°C (61°F) [RH = 94%]
Pressure (altimeter): 30.00 inches Hg (1016.0 mb)
Winds: from the E (80 degrees) at 6 MPH (5 knots; 2.6 m/s)
Visibility: 6 or more miles (10+ km)
Ceiling: at least 12,000 feet AGL
Clouds: few clouds at 1400 feet AGL
scattered clouds at 2000 feet AGL
Weather: no significant weather observed at this time

METAR text: FMMI 260100Z 08003KT 9999 FEW014 SCT020 17/16 Q1016 NOSIG
Conditions at: FMMI (ANTANANARIVO/IVA, KM) observed 0100 UTC 26 February 2021
Temperature: 17.0°C (63°F)
Dewpoint: 16.0°C (61°F) [RH = 94%]
Pressure (altimeter): 30.00 inches Hg (1016.0 mb)
Winds: from the E (80 degrees) at 3 MPH (3 knots; 1.5 m/s)
Visibility: 6 or more miles (10+ km)
Ceiling: at least 12,000 feet AGL
Clouds: few clouds at 1400 feet AGL
scattered clouds at 2000 feet AGL
Weather: no significant weather observed at this time

METAR text: FMMI 260030Z 08004KT 9999 FEW014 SCT020 17/16 Q1016 NOSIG
Conditions at: FMMI (ANTANANARIVO/IVA, KM) observed 0030 UTC 26 February 2021
Temperature: 17.0°C (63°F)
Dewpoint: 16.0°C (61°F) [RH = 94%]
Pressure (altimeter): 30.00 inches Hg (1016.0 mb)
Winds: from the E (80 degrees) at 5 MPH (4 knots; 2.1 m/s)
Visibility: 6 or more miles (10+ km)
Ceiling: at least 12,000 feet AGL
Clouds: few clouds at 1400 feet AGL
scattered clouds at 2000 feet AGL
Weather: no significant weather observed at this time

METAR text: FMMI 260000Z 09004KT 070V130 9999 FEW014 SCT020 18/16 Q1016 NOSIG
Conditions at: FMMI (ANTANANARIVO/IVA, KM) observed 0000 UTC 26 February 2021
Temperature: 18.0°C (64°F)
Dewpoint: 16.0°C (61°F) [RH = 88%]
Pressure (altimeter): 30.00 inches Hg (1016.0 mb)
Winds: from the E (90 degrees) at 5 MPH (4 knots; 2.1 m/s)
Visibility: 6 or more miles (10+ km)
Ceiling: at least 12,000 feet AGL
Clouds: few clouds at 1400 feet AGL
scattered clouds at 2000 feet AGL
Weather: no significant weather observed at this time

METAR text: FMMI 252330Z 08004KT 9999 FEW014 BKN020 18/17 Q1016 NOSIG
Conditions at: FMMI (ANTANANARIVO/IVA, KM) observed 2330 UTC 25 February 2021
Temperature: 18.0°C (64°F)
Dewpoint: 17.0°C (63°F) [RH = 94%]
Pressure (altimeter): 30.00 inches Hg (1016.0 mb)
Winds: from the E (80 degrees) at 5 MPH (4 knots; 2.1 m/s)
Visibility: 6 or more miles (10+ km)
Ceiling: 2000 feet AGL
Clouds: few clouds at 1400 feet AGL
broken clouds at 2000 feet AGL
Weather: no significant weather observed at this time

METAR text: FMMI 252300Z 09005KT 9999 FEW014 BKN020 19/17 Q1017 NOSIG
Conditions at: FMMI (ANTANANARIVO/IVA, KM) observed 2300 UTC 25 February 2021
Temperature: 19.0°C (66°F)
Dewpoint: 17.0°C (63°F) [RH = 88%]
Pressure (altimeter): 30.03 inches Hg (1017.0 mb)
Winds: from the E (90 degrees) at 6 MPH (5 knots; 2.6 m/s)
Visibility: 6 or more miles (10+ km)
Ceiling: 2000 feet AGL
Clouds: few clouds at 1400 feet AGL
broken clouds at 2000 feet AGL
Weather: no significant weather observed at this time

METAR text: FMMI 252230Z 08003KT 9999 FEW014 BKN020 19/17 Q1017 NOSIG
Conditions at: FMMI (ANTANANARIVO/IVA, KM) observed 2230 UTC 25 February 2021
Temperature: 19.0°C (66°F)
Dewpoint: 17.0°C (63°F) [RH = 88%]
Pressure (altimeter): 30.03 inches Hg (1017.0 mb)
Winds: from the E (80 degrees) at 3 MPH (3 knots; 1.5 m/s)
Visibility: 6 or more miles (10+ km)
Ceiling: 2000 feet AGL
Clouds: few clouds at 1400 feet AGL
broken clouds at 2000 feet AGL
Weather: no significant weather observed at this time

METAR text: FMMI 252200Z 06004KT 9999 FEW014 BKN020 20/18 Q1017 NOSIG
Conditions at: FMMI (ANTANANARIVO/IVA, KM) observed 2200 UTC 25 February 2021
Temperature: 20.0°C (68°F)
Dewpoint: 18.0°C (64°F) [RH = 88%]
Pressure (altimeter): 30.03 inches Hg (1017.0 mb)
Winds: from the ENE (60 degrees) at 5 MPH (4 knots; 2.1 m/s)
Visibility: 6 or more miles (10+ km)
Ceiling: 2000 feet AGL
Clouds: few clouds at 1400 feet AGL
broken clouds at 2000 feet AGL
Weather: no significant weather observed at this time

METAR text: FMMI 252130Z 07003KT 9999 FEW013 BKN020 20/17 Q1017 NOSIG
Conditions at: FMMI (ANTANANARIVO/IVA, KM) observed 2130 UTC 25 February 2021
Temperature: 20.0°C (68°F)
Dewpoint: 17.0°C (63°F) [RH = 83%]
Pressure (altimeter): 30.03 inches Hg (1017.0 mb)
Winds: from the ENE (70 degrees) at 3 MPH (3 knots; 1.5 m/s)
Visibility: 6 or more miles (10+ km)
Ceiling: 2000 feet AGL
Clouds: few clouds at 1300 feet AGL
broken clouds at 2000 feet AGL
Weather: no significant weather observed at this time

METAR text: FMMI 252100Z 04002KT 9999 FEW013 BKN020 20/17 Q1018 NOSIG
Conditions at: FMMI (ANTANANARIVO/IVA, KM) observed 2100 UTC 25 February 2021
Temperature: 20.0°C (68°F)
Dewpoint: 17.0°C (63°F) [RH = 83%]
Pressure (altimeter): 30.06 inches Hg (1018.0 mb)
Winds: from the NE (40 degrees) at 2 MPH (2 knots; 1.0 m/s)
Visibility: 6 or more miles (10+ km)
Ceiling: 2000 feet AGL
Clouds: few clouds at 1300 feet AGL
broken clouds at 2000 feet AGL
Weather: no significant weather observed at this time

METAR text: FMMI 252030Z 10005KT 9999 FEW013 BKN020 20/17 Q1018 NOSIG
Conditions at: FMMI (ANTANANARIVO/IVA, KM) observed 2030 UTC 25 February 2021
Temperature: 20.0°C (68°F)
Dewpoint: 17.0°C (63°F) [RH = 83%]
Pressure (altimeter): 30.06 inches Hg (1018.0 mb)
Winds: from the E (100 degrees) at 6 MPH (5 knots; 2.6 m/s)
Visibility: 6 or more miles (10+ km)
Ceiling: 2000 feet AGL
Clouds: few clouds at 1300 feet AGL
broken clouds at 2000 feet AGL
Weather: no significant weather observed at this time

METAR text: FMMI 252000Z 09006KT 9999 FEW013 BKN020 20/17 Q1018 NOSIG
Conditions at: FMMI (ANTANANARIVO/IVA, KM) observed 2000 UTC 25 February 2021
Temperature: 20.0°C (68°F)
Dewpoint: 17.0°C (63°F) [RH = 83%]
Pressure (altimeter): 30.06 inches Hg (1018.0 mb)
Winds: from the E (90 degrees) at 7 MPH (6 knots; 3.1 m/s)
Visibility: 6 or more miles (10+ km)
Ceiling: 2000 feet AGL
Clouds: few clouds at 1300 feet AGL
broken clouds at 2000 feet AGL
Weather: no significant weather observed at this time

METAR text: FMMI 251930Z 12005KT 090V190 9999 FEW013 BKN020 20/17 Q1017 NOSIG
Conditions at: FMMI (ANTANANARIVO/IVA, KM) observed 1930 UTC 25 February 2021
Temperature: 20.0°C (68°F)
Dewpoint: 17.0°C (63°F) [RH = 83%]
Pressure (altimeter): 30.03 inches Hg (1017.0 mb)
Winds: from the ESE (120 degrees) at 6 MPH (5 knots; 2.6 m/s)
Visibility: 6 or more miles (10+ km)
Ceiling: 2000 feet AGL
Clouds: few clouds at 1300 feet AGL
broken clouds at 2000 feet AGL
Weather: no significant weather observed at this time

METAR text: FMMI 251900Z 09005KT 070V130 9999 FEW017 BKN020 20/17 Q1017 NOSIG
Conditions at: FMMI (ANTANANARIVO/IVA, KM) observed 1900 UTC 25 February 2021
Temperature: 20.0°C (68°F)
Dewpoint: 17.0°C (63°F) [RH = 83%]
Pressure (altimeter): 30.03 inches Hg (1017.0 mb)
Winds: from the E (90 degrees) at 6 MPH (5 knots; 2.6 m/s)
Visibility: 6 or more miles (10+ km)
Ceiling: 2000 feet AGL
Clouds: few clouds at 1700 feet AGL
broken clouds at 2000 feet AGL
Weather: no significant weather observed at this time

METAR text: FMMI 251830Z 10005KT 9999 FEW017CB BKN020 20/17 Q1017 NOSIG
Conditions at: FMMI (ANTANANARIVO/IVA, KM) observed 1830 UTC 25 February 2021
Temperature: 20.0°C (68°F)
Dewpoint: 17.0°C (63°F) [RH = 83%]
Pressure (altimeter): 30.03 inches Hg (1017.0 mb)
Winds: from the E (100 degrees) at 6 MPH (5 knots; 2.6 m/s)
Visibility: 6 or more miles (10+ km)
Ceiling: 2000 feet AGL
Clouds: few clouds at 1700 feet AGL
broken clouds at 2000 feet AGL
Weather: no significant weather observed at this time

METAR text: FMMI 251800Z 11007KT 9999 VCTS FEW017CB 21/17 Q1017 NOSIG
Conditions at: FMMI (ANTANANARIVO/IVA, KM) observed 1800 UTC 25 February 2021
Temperature: 21.0°C (70°F)
Dewpoint: 17.0°C (63°F) [RH = 78%]
Pressure (altimeter): 30.03 inches Hg (1017.0 mb)
Winds: from the ESE (110 degrees) at 8 MPH (7 knots; 3.6 m/s)
Visibility: 6 or more miles (10+ km)
Ceiling: at least 12,000 feet AGL
Clouds: few clouds at 1700 feet AGL
Weather: VCTS  (thunderstorm in vicinity)

METAR text: FMMI 251730Z 09007KT 050V110 9999 VCTS FEW017CB SCT046 21/17 Q1016 NOSIG
Conditions at: FMMI (ANTANANARIVO/IVA, KM) observed 1730 UTC 25 February 2021
Temperature: 21.0°C (70°F)
Dewpoint: 17.0°C (63°F) [RH = 78%]
Pressure (altimeter): 30.00 inches Hg (1016.0 mb)
Winds: from the E (90 degrees) at 8 MPH (7 knots; 3.6 m/s)
Visibility: 6 or more miles (10+ km)
Ceiling: at least 12,000 feet AGL
Clouds: few clouds at 1700 feet AGL
scattered clouds at 4600 feet AGL
Weather: VCTS  (thunderstorm in vicinity)

METAR text: FMMI 251700Z 10008KT 9999 FEW017CB SCT046 21/17 Q1016 NOSIG
Conditions at: FMMI (ANTANANARIVO/IVA, KM) observed 1700 UTC 25 February 2021
Temperature: 21.0°C (70°F)
Dewpoint: 17.0°C (63°F) [RH = 78%]
Pressure (altimeter): 30.00 inches Hg (1016.0 mb)
Winds: from the E (100 degrees) at 9 MPH (8 knots; 4.1 m/s)
Visibility: 6 or more miles (10+ km)
Ceiling: at least 12,000 feet AGL
Clouds: few clouds at 1700 feet AGL
scattered clouds at 4600 feet AGL
Weather: no significant weather observed at this time

METAR text: FMMI 251630Z 10009KT 9999 BKN020CB 22/17 Q1016 NOSIG
Conditions at: FMMI (ANTANANARIVO/IVA, KM) observed 1630 UTC 25 February 2021
Temperature: 22.0°C (72°F)
Dewpoint: 17.0°C (63°F) [RH = 73%]
Pressure (altimeter): 30.00 inches Hg (1016.0 mb)
Winds: from the E (100 degrees) at 10 MPH (9 knots; 4.6 m/s)
Visibility: 6 or more miles (10+ km)
Ceiling: 2000 feet AGL
Clouds: broken clouds at 2000 feet AGL
Weather: no significant weather observed at this time

METAR text: FMMI 251600Z 11012KT 9999 BKN020CB 22/17 Q1016 NOSIG
Conditions at: FMMI (ANTANANARIVO/IVA, KM) observed 1600 UTC 25 February 2021
Temperature: 22.0°C (72°F)
Dewpoint: 17.0°C (63°F) [RH = 73%]
Pressure (altimeter): 30.00 inches Hg (1016.0 mb)
Winds: from the ESE (110 degrees) at 14 MPH (12 knots; 6.2 m/s)
Visibility: 6 or more miles (10+ km)
Ceiling: 2000 feet AGL
Clouds: broken clouds at 2000 feet AGL
Weather: no significant weather observed at this time

METAR text: FMMI 251530Z 11012KT 9999 BKN020CB 23/17 Q1015 NOSIG
Conditions at: FMMI (ANTANANARIVO/IVA, KM) observed 1530 UTC 25 February 2021
Temperature: 23.0°C (73°F)
Dewpoint: 17.0°C (63°F) [RH = 69%]
Pressure (altimeter): 29.97 inches Hg (1015.0 mb)
Winds: from the ESE (110 degrees) at 14 MPH (12 knots; 6.2 m/s)
Visibility: 6 or more miles (10+ km)
Ceiling: 2000 feet AGL
Clouds: broken clouds at 2000 feet AGL
Weather: no significant weather observed at this time

METAR text: FMMI 251500Z 11010KT 090V150 9999 SCT020CB 23/17 Q1015 NOSIG
Conditions at: FMMI (ANTANANARIVO/IVA, KM) observed 1500 UTC 25 February 2021
Temperature: 23.0°C (73°F)
Dewpoint: 17.0°C (63°F) [RH = 69%]
Pressure (altimeter): 29.97 inches Hg (1015.0 mb)
Winds: from the ESE (110 degrees) at 12 MPH (10 knots; 5.1 m/s)
Visibility: 6 or more miles (10+ km)
Ceiling: at least 12,000 feet AGL
Clouds: scattered clouds at 2000 feet AGL
Weather: no significant weather observed at this time

METAR text: FMMI 251430Z 09010KT 9999 SCT020CB 24/15 Q1014 NOSIG
Conditions at: FMMI (ANTANANARIVO/IVA, KM) observed 1430 UTC 25 February 2021
Temperature: 24.0°C (75°F)
Dewpoint: 15.0°C (59°F) [RH = 57%]
Pressure (altimeter): 29.94 inches Hg (1014.0 mb)
Winds: from the E (90 degrees) at 12 MPH (10 knots; 5.1 m/s)
Visibility: 6 or more miles (10+ km)
Ceiling: at least 12,000 feet AGL
Clouds: scattered clouds at 2000 feet AGL
Weather: no significant weather observed at this time

METAR text: FMMI 251400Z 10013KT 9999 SCT020CB 26/16 Q1014 NOSIG
Conditions at: FMMI (ANTANANARIVO/IVA, KM) observed 1400 UTC 25 February 2021
Temperature: 26.0°C (79°F)
Dewpoint: 16.0°C (61°F) [RH = 54%]
Pressure (altimeter): 29.94 inches Hg (1014.0 mb)
Winds: from the E (100 degrees) at 15 MPH (13 knots; 6.7 m/s)
Visibility: 6 or more miles (10+ km)
Ceiling: at least 12,000 feet AGL
Clouds: scattered clouds at 2000 feet AGL
Weather: no significant weather observed at this time

METAR text: FMMI 251330Z 08011KT 9999 SCT020CB 27/16 Q1014 NOSIG
Conditions at: FMMI (ANTANANARIVO/IVA, KM) observed 1330 UTC 25 February 2021
Temperature: 27.0°C (81°F)
Dewpoint: 16.0°C (61°F) [RH = 51%]
Pressure (altimeter): 29.94 inches Hg (1014.0 mb)
Winds: from the E (80 degrees) at 13 MPH (11 knots; 5.7 m/s)
Visibility: 6 or more miles (10+ km)
Ceiling: at least 12,000 feet AGL
Clouds: scattered clouds at 2000 feet AGL
Weather: no significant weather observed at this time

METAR text: FMMI 251300Z 07010KT 9999 BKN020CB 27/16 Q1014 NOSIG
Conditions at: FMMI (ANTANANARIVO/IVA, KM) observed 1300 UTC 25 February 2021
Temperature: 27.0°C (81°F)
Dewpoint: 16.0°C (61°F) [RH = 51%]
Pressure (altimeter): 29.94 inches Hg (1014.0 mb)
Winds: from the ENE (70 degrees) at 12 MPH (10 knots; 5.1 m/s)
Visibility: 6 or more miles (10+ km)
Ceiling: 2000 feet AGL
Clouds: broken clouds at 2000 feet AGL
Weather: no significant weather observed at this time

METAR text: FMMI 251230Z 10010KT 060V140 9999 BKN020CB 27/16 Q1014 NOSIG
Conditions at: FMMI (ANTANANARIVO/IVA, KM) observed 1230 UTC 25 February 2021
Temperature: 27.0°C (81°F)
Dewpoint: 16.0°C (61°F) [RH = 51%]
Pressure (altimeter): 29.94 inches Hg (1014.0 mb)
Winds: from the E (100 degrees) at 12 MPH (10 knots; 5.1 m/s)
Visibility: 6 or more miles (10+ km)
Ceiling: 2000 feet AGL
Clouds: broken clouds at 2000 feet AGL
Weather: no significant weather observed at this time

METAR text: FMMI 251200Z 09011KT 060V120 9999 BKN020CB 27/17 Q1014 NOSIG
Conditions at: FMMI (ANTANANARIVO/IVA, KM) observed 1200 UTC 25 February 2021
Temperature: 27.0°C (81°F)
Dewpoint: 17.0°C (63°F) [RH = 54%]
Pressure (altimeter): 29.94 inches Hg (1014.0 mb)
Winds: from the E (90 degrees) at 13 MPH (11 knots; 5.7 m/s)
Visibility: 6 or more miles (10+ km)
Ceiling: 2000 feet AGL
Clouds: broken clouds at 2000 feet AGL
Weather: no significant weather observed at this time

METAR text: FMMI 251130Z 09012KT 9999 BKN020CB 27/16 Q1015 NOSIG
Conditions at: FMMI (ANTANANARIVO/IVA, KM) observed 1130 UTC 25 February 2021
Temperature: 27.0°C (81°F)
Dewpoint: 16.0°C (61°F) [RH = 51%]
Pressure (altimeter): 29.97 inches Hg (1015.0 mb)
Winds: from the E (90 degrees) at 14 MPH (12 knots; 6.2 m/s)
Visibility: 6 or more miles (10+ km)
Ceiling: 2000 feet AGL
Clouds: broken clouds at 2000 feet AGL
Weather: no significant weather observed at this time

METAR text: FMMI 251100Z 10008KT 030V140 9999 BKN020CB 27/17 Q10
Conditions at: FMMI (ANTANANARIVO/IVA, KM) observed 1100 UTC 25 February 2021
Temperature: 27.0°C (81°F)
Dewpoint: 17.0°C (63°F) [RH = 54%]
Pressure (altimeter): missing
Winds: from the E (100 degrees) at 9 MPH (8 knots; 4.1 m/s)
Visibility: 6 or more miles (10+ km)
Ceiling: 2000 feet AGL
Clouds: broken clouds at 2000 feet AGL
Weather: no significant weather observed at this time

METAR text: FMMI 251030Z 10009KT 060V130 9999 BKN020CB 27/17 Q1015 NOSIG
Conditions at: FMMI (ANTANANARIVO/IVA, KM) observed 1030 UTC 25 February 2021
Temperature: 27.0°C (81°F)
Dewpoint: 17.0°C (63°F) [RH = 54%]
Pressure (altimeter): 29.97 inches Hg (1015.0 mb)
Winds: from the E (100 degrees) at 10 MPH (9 knots; 4.6 m/s)
Visibility: 6 or more miles (10+ km)
Ceiling: 2000 feet AGL
Clouds: broken clouds at 2000 feet AGL
Weather: no significant weather observed at this time

METAR text: FMMI 251000Z 13008KT 090V190 9999 ///// Q////
Conditions at: FMMI (ANTANANARIVO/IVA, KM) observed 1000 UTC 25 February 2021
Temperature: missing
Dewpoint: missing
Pressure (altimeter): missing
Winds: from the SE (130 degrees) at 9 MPH (8 knots; 4.1 m/s)
Visibility: 6 or more miles (10+ km)
Ceiling: unknown
Clouds: missing
Weather: no significant weather observed at this time

METAR text: FMMI 250930Z 10011KT 07
Conditions at: FMMI (ANTANANARIVO/IVA, KM) observed 0930 UTC 25 February 2021
Temperature: missing
Dewpoint: missing
Pressure (altimeter): missing
Winds: from the E (100 degrees) at 13 MPH (11 knots; 5.7 m/s)
Visibility: missing
Ceiling: unknown
Clouds: missing
Weather: no significant weather observed at this time

METAR text: FMMI 250900Z 10012KT 060V140 9999 BKN020TCU BKN023 25/18 Q1017 NOSIG
Conditions at: FMMI (ANTANANARIVO/IVA, KM) observed 0900 UTC 25 February 2021
Temperature: 25.0°C (77°F)
Dewpoint: 18.0°C (64°F) [RH = 65%]
Pressure (altimeter): 30.03 inches Hg (1017.0 mb)
Winds: from the E (100 degrees) at 14 MPH (12 knots; 6.2 m/s)
Visibility: 6 or more miles (10+ km)
Ceiling: 2000 feet AGL
Clouds: broken clouds at 2000 feet AGL
broken clouds at 2300 feet AGL
Weather: no significant weather observed at this time

METAR text: FMMI 250830Z 11009KT 080V140 9999 BKN020TCU BKN023 25/18 Q1018 NOSIG
Conditions at: FMMI (ANTANANARIVO/IVA, KM) observed 0830 UTC 25 February 2021
Temperature: 25.0°C (77°F)
Dewpoint: 18.0°C (64°F) [RH = 65%]
Pressure (altimeter): 30.06 inches Hg (1018.0 mb)
Winds: from the ESE (110 degrees) at 10 MPH (9 knots; 4.6 m/s)
Visibility: 6 or more miles (10+ km)
Ceiling: 2000 feet AGL
Clouds: broken clouds at 2000 feet AGL
broken clouds at 2300 feet AGL
Weather: no significant weather observed at this time

METAR text: FMMI 250800Z 11007KT 080V150 9999 BKN020TCU BKN023 24/18 Q1018 NOSIG
Conditions at: FMMI (ANTANANARIVO/IVA, KM) observed 0800 UTC 25 February 2021
Temperature: 24.0°C (75°F)
Dewpoint: 18.0°C (64°F) [RH = 69%]
Pressure (altimeter): 30.06 inches Hg (1018.0 mb)
Winds: from the ESE (110 degrees) at 8 MPH (7 knots; 3.6 m/s)
Visibility: 6 or more miles (10+ km)
Ceiling: 2000 feet AGL
Clouds: broken clouds at 2000 feet AGL
broken clouds at 2300 feet AGL
Weather: no significant weather observed at this time

METAR text: FMMI 250730Z 11005KT 030V180 9999 SCT017 BKN020 23/18 Q1018 NOSIG
Conditions at: FMMI (ANTANANARIVO/IVA, KM) observed 0730 UTC 25 February 2021
Temperature: 23.0°C (73°F)
Dewpoint: 18.0°C (64°F) [RH = 73%]
Pressure (altimeter): 30.06 inches Hg (1018.0 mb)
Winds: from the ESE (110 degrees) at 6 MPH (5 knots; 2.6 m/s)
Visibility: 6 or more miles (10+ km)
Ceiling: 2000 feet AGL
Clouds: scattered clouds at 1700 feet AGL
broken clouds at 2000 feet AGL
Weather: no significant weather observed at this time

METAR text: FMMI 250700Z 14005KT 110V200 9999 SCT017 BKN020 21/17 Q1018 NOSIG
Conditions at: FMMI (ANTANANARIVO/IVA, KM) observed 0700 UTC 25 February 2021
Temperature: 21.0°C (70°F)
Dewpoint: 17.0°C (63°F) [RH = 78%]
Pressure (altimeter): 30.06 inches Hg (1018.0 mb)
Winds: from the SE (140 degrees) at 6 MPH (5 knots; 2.6 m/s)
Visibility: 6 or more miles (10+ km)
Ceiling: 2000 feet AGL
Clouds: scattered clouds at 1700 feet AGL
broken clouds at 2000 feet AGL
Weather: no significant weather observed at this time

METAR text: FMMI 250630Z 15004KT 100V200 9999 FEW012 BKN020 21/17 Q1018 NOSIG
Conditions at: FMMI (ANTANANARIVO/IVA, KM) observed 0630 UTC 25 February 2021
Temperature: 21.0°C (70°F)
Dewpoint: 17.0°C (63°F) [RH = 78%]
Pressure (altimeter): 30.06 inches Hg (1018.0 mb)
Winds: from the SSE (150 degrees) at 5 MPH (4 knots; 2.1 m/s)
Visibility: 6 or more miles (10+ km)
Ceiling: 2000 feet AGL
Clouds: few clouds at 1200 feet AGL
broken clouds at 2000 feet AGL
Weather: no significant weather observed at this time

METAR text: FMMI 250600Z 18007KT 150V210 9999 FEW012 BKN020 21/17 Q1018 NOSIG
Conditions at: FMMI (ANTANANARIVO/IVA, KM) observed 0600 UTC 25 February 2021
Temperature: 21.0°C (70°F)
Dewpoint: 17.0°C (63°F) [RH = 78%]
Pressure (altimeter): 30.06 inches Hg (1018.0 mb)
Winds: from the S (180 degrees) at 8 MPH (7 knots; 3.6 m/s)
Visibility: 6 or more miles (10+ km)
Ceiling: 2000 feet AGL
Clouds: few clouds at 1200 feet AGL
broken clouds at 2000 feet AGL
Weather: no significant weather observed at this time

METAR text: FMMI 250530Z 15005KT 110V210 9999 FEW010 BKN020 21/17 Q1018 NOSIG
Conditions at: FMMI (ANTANANARIVO/IVA, KM) observed 0530 UTC 25 February 2021
Temperature: 21.0°C (70°F)
Dewpoint: 17.0°C (63°F) [RH = 78%]
Pressure (altimeter): 30.06 inches Hg (1018.0 mb)
Winds: from the SSE (150 degrees) at 6 MPH (5 knots; 2.6 m/s)
Visibility: 6 or more miles (10+ km)
Ceiling: 2000 feet AGL
Clouds: few clouds at 1000 feet AGL
broken clouds at 2000 feet AGL
Weather: no significant weather observed at this time

METAR text: FMMI 250500Z 14005KT 100V180 9999 FEW017 BKN020 20/17 Q1018 NOSIG
Conditions at: FMMI (ANTANANARIVO/IVA, KM) observed 0500 UTC 25 February 2021
Temperature: 20.0°C (68°F)
Dewpoint: 17.0°C (63°F) [RH = 83%]
Pressure (altimeter): 30.06 inches Hg (1018.0 mb)
Winds: from the SE (140 degrees) at 6 MPH (5 knots; 2.6 m/s)
Visibility: 6 or more miles (10+ km)
Ceiling: 2000 feet AGL
Clouds: few clouds at 1700 feet AGL
broken clouds at 2000 feet AGL
Weather: no significant weather observed at this time

METAR text: FMMI 250430Z 15004KT 110V190 9999 FEW017 BKN020 19/17 Q1018 NOSIG
Conditions at: FMMI (ANTANANARIVO/IVA, KM) observed 0430 UTC 25 February 2021
Temperature: 19.0°C (66°F)
Dewpoint: 17.0°C (63°F) [RH = 88%]
Pressure (altimeter): 30.06 inches Hg (1018.0 mb)
Winds: from the SSE (150 degrees) at 5 MPH (4 knots; 2.1 m/s)
Visibility: 6 or more miles (10+ km)
Ceiling: 2000 feet AGL
Clouds: few clouds at 1700 feet AGL
broken clouds at 2000 feet AGL
Weather: no significant weather observed at this time

METAR text: FMMI 250400Z 10004KT 070V130 9999 FEW017 BKN020 19/17 Q1018 NOSIG
Conditions at: FMMI (ANTANANARIVO/IVA, KM) observed 0400 UTC 25 February 2021
Temperature: 19.0°C (66°F)
Dewpoint: 17.0°C (63°F) [RH = 88%]
Pressure (altimeter): 30.06 inches Hg (1018.0 mb)
Winds: from the E (100 degrees) at 5 MPH (4 knots; 2.1 m/s)
Visibility: 6 or more miles (10+ km)
Ceiling: 2000 feet AGL
Clouds: few clouds at 1700 feet AGL
broken clouds at 2000 feet AGL
Weather: no significant weather observed at this time

METAR text: FMMI 250330Z 09006KT 9999 FEW017 BKN020 18/16 Q1017 NOSIG
Conditions at: FMMI (ANTANANARIVO/IVA, KM) observed 0330 UTC 25 February 2021
Temperature: 18.0°C (64°F)
Dewpoint: 16.0°C (61°F) [RH = 88%]
Pressure (altimeter): 30.03 inches Hg (1017.0 mb)
Winds: from the E (90 degrees) at 7 MPH (6 knots; 3.1 m/s)
Visibility: 6 or more miles (10+ km)
Ceiling: 2000 feet AGL
Clouds: few clouds at 1700 feet AGL
broken clouds at 2000 feet AGL
Weather: no significant weather observed at this time

METAR text: FMMI 250300Z 10005KT 9999 FEW017 SCT024 18/16 Q1017 NOSIG
Conditions at: FMMI (ANTANANARIVO/IVA, KM) observed 0300 UTC 25 February 2021
Temperature: 18.0°C (64°F)
Dewpoint: 16.0°C (61°F) [RH = 88%]
Pressure (altimeter): 30.03 inches Hg (1017.0 mb)
Winds: from the E (100 degrees) at 6 MPH (5 knots; 2.6 m/s)
Visibility: 6 or more miles (10+ km)
Ceiling: at least 12,000 feet AGL
Clouds: few clouds at 1700 feet AGL
scattered clouds at 2400 feet AGL
Weather: no significant weather observed at this time

METAR text: FMMI 250230Z 11007KT 9999 FEW017 BKN020 18/16 Q1017 NOSIG
Conditions at: FMMI (ANTANANARIVO/IVA, KM) observed 0230 UTC 25 February 2021
Temperature: 18.0°C (64°F)
Dewpoint: 16.0°C (61°F) [RH = 88%]
Pressure (altimeter): 30.03 inches Hg (1017.0 mb)
Winds: from the ESE (110 degrees) at 8 MPH (7 knots; 3.6 m/s)
Visibility: 6 or more miles (10+ km)
Ceiling: 2000 feet AGL
Clouds: few clouds at 1700 feet AGL
broken clouds at 2000 feet AGL
Weather: no significant weather observed at this time

METAR text: FMMI 250200Z 11003KT 080V150 9999 FEW017 BKN020 18/16 Q1017 NOSIG
Conditions at: FMMI (ANTANANARIVO/IVA, KM) observed 0200 UTC 25 February 2021
Temperature: 18.0°C (64°F)
Dewpoint: 16.0°C (61°F) [RH = 88%]
Pressure (altimeter): 30.03 inches Hg (1017.0 mb)
Winds: from the ESE (110 degrees) at 3 MPH (3 knots; 1.5 m/s)
Visibility: 6 or more miles (10+ km)
Ceiling: 2000 feet AGL
Clouds: few clouds at 1700 feet AGL
broken clouds at 2000 feet AGL
Weather: no significant weather observed at this time

Forecast for: FMMI (ANTANANARIVO/IVA, KM)
Text: TAF FMMI 261100Z 2612/2718 VRB05KT 9999 BKN020CB
Forecast period: 1200 to 1900 UTC 26 February 2021
Forecast type: FROM: standard forecast or significant change
Winds: variable direction winds at 6 MPH (5 knots; 2.6 m/s)
Visibility: 6 or more miles (10+ km)
Ceiling: 2000 feet AGL
Clouds: broken clouds at 2000 feet AGL
Weather: no significant weather forecast for this period
Text: PROB30
Forecast period: 1400 to 1900 UTC 26 February 2021
Forecast type: TEMPORARY: The following changes expected for less than half the time period
Visibility: 2.80 miles (4.51 km)
Ceiling: unknown
Clouds: missing
Weather: RA  (moderate rain)
Text: TEMPO 2614/2619 4500 RA
Forecast period: 1900 UTC 26 February 2021 to 0800 UTC 27 February 2021
Forecast type: BECOMING: Conditions expected to become as follows by 2100 UTC 26 February 2021
Winds: variable direction winds at 6 MPH (5 knots; 2.6 m/s)
Visibility: 6 or more miles (10+ km)
Ceiling: 2000 feet AGL
Clouds: few clouds at 700 feet AGL
broken clouds at 2000 feet AGL
Weather: no significant weather forecast for this period
Text: BECMG 2619/2621 FEW007 BKN020
Forecast period: 0000 to 0300 UTC 27 February 2021
Forecast type: TEMPORARY: The following changes expected for less than half the time period
Visibility: 2.80 miles (4.51 km)
Ceiling: unknown
Clouds: missing
Weather: RA DZ  (moderate rain, moderate drizzle)
Text: PROB40
Forecast period: 0800 to 1800 UTC 27 February 2021
Forecast type: BECOMING: Conditions expected to become as follows by 1000 UTC 27 February 2021
Winds: variable direction winds at 6 MPH (5 knots; 2.6 m/s)
Visibility: 6 or more miles (10+ km)
Ceiling: at least 12,000 feet AGL
Clouds: scattered clouds at 2000 feet AGL
Weather: no significant weather forecast for this period